sensor_id;sensor_type;location;lat;lon;timestamp;temperature;humidity
45579;DHT22;31293;51.390;12.254;2024-01-11T00:01:28;-11.50;99.90
45579;DHT22;31293;51.390;12.254;2024-01-11T00:03:30;-11.60;99.90
45579;DHT22;31293;51.390;12.254;2024-01-11T00:05:32;-11.60;99.90
45579;DHT22;31293;51.390;12.254;2024-01-11T00:07:34;-11.60;99.90
45579;DHT22;31293;51.390;12.254;2024-01-11T00:09:40;-11.70;99.90
45579;DHT22;31293;51.390;12.254;2024-01-11T00:11:42;-11.60;99.90
45579;DHT22;31293;51.390;12.254;2024-01-11T00:13:44;-11.60;99.90
45579;DHT22;31293;51.390;12.254;2024-01-11T00:15:46;-11.60;99.90
45579;DHT22;31293;51.390;12.254;2024-01-11T00:17:50;-11.70;99.90
45579;DHT22;31293;51.390;12.254;2024-01-11T00:19:52;-11.80;99.90
45579;DHT22;31293;51.390;12.254;2024-01-11T00:21:55;-11.80;99.90
45579;DHT22;31293;51.390;12.254;2024-01-11T00:23:56;-11.80;99.90
45579;DHT22;31293;51.390;12.254;2024-01-11T00:25:58;-11.80;99.90
45579;DHT22;31293;51.390;12.254;2024-01-11T00:28:01;-11.70;99.90
45579;DHT22;31293;51.390;12.254;2024-01-11T00:30:04;-11.80;99.90
45579;DHT22;31293;51.390;12.254;2024-01-11T00:32:06;-11.80;99.90
45579;DHT22;31293;51.390;12.254;2024-01-11T00:34:08;-11.90;99.90
45579;DHT22;31293;51.390;12.254;2024-01-11T00:36:10;-11.90;99.90
45579;DHT22;31293;51.390;12.254;2024-01-11T00:38:12;-11.60;99.90
45579;DHT22;31293;51.390;12.254;2024-01-11T00:40:14;-11.50;99.90
45579;DHT22;31293;51.390;12.254;2024-01-11T00:42:16;-11.60;99.90
45579;DHT22;31293;51.390;12.254;2024-01-11T00:44:18;-11.60;99.90
45579;DHT22;31293;51.390;12.254;2024-01-11T00:46:20;-11.70;99.90
45579;DHT22;31293;51.390;12.254;2024-01-11T00:48:22;-11.80;99.90
45579;DHT22;31293;51.390;12.254;2024-01-11T00:50:25;-11.90;99.90
45579;DHT22;31293;51.390;12.254;2024-01-11T00:52:27;-11.70;99.90
45579;DHT22;31293;51.390;12.254;2024-01-11T00:54:29;-11.70;99.90
45579;DHT22;31293;51.390;12.254;2024-01-11T00:56:32;-11.70;99.90
45579;DHT22;31293;51.390;12.254;2024-01-11T00:58:33;-11.80;99.90
45579;DHT22;31293;51.390;12.254;2024-01-11T01:00:35;-11.80;99.90
45579;DHT22;31293;51.390;12.254;2024-01-11T01:02:37;-11.80;99.90
45579;DHT22;31293;51.390;12.254;2024-01-11T01:04:39;-11.70;99.90
45579;DHT22;31293;51.390;12.254;2024-01-11T01:06:41;-11.70;99.90
45579;DHT22;31293;51.390;12.254;2024-01-11T01:08:44;-11.70;99.90
45579;DHT22;31293;51.390;12.254;2024-01-11T01:10:47;-11.70;99.90
45579;DHT22;31293;51.390;12.254;2024-01-11T01:12:49;-11.80;99.90
45579;DHT22;31293;51.390;12.254;2024-01-11T01:14:51;-11.90;99.90
45579;DHT22;31293;51.390;12.254;2024-01-11T01:16:53;-11.90;99.90
45579;DHT22;31293;51.390;12.254;2024-01-11T01:18:55;-12.00;99.90
45579;DHT22;31293;51.390;12.254;2024-01-11T01:20:57;-12.00;99.90
45579;DHT22;31293;51.390;12.254;2024-01-11T01:23:02;-12.00;99.90
45579;DHT22;31293;51.390;12.254;2024-01-11T01:25:04;-12.00;99.90
45579;DHT22;31293;51.390;12.254;2024-01-11T01:27:06;-11.90;99.90
45579;DHT22;31293;51.390;12.254;2024-01-11T01:29:08;-11.70;99.90
45579;DHT22;31293;51.390;12.254;2024-01-11T01:31:11;-11.80;99.90
45579;DHT22;31293;51.390;12.254;2024-01-11T01:33:13;-11.90;99.90
45579;DHT22;31293;51.390;12.254;2024-01-11T01:35:16;-11.90;99.90
45579;DHT22;31293;51.390;12.254;2024-01-11T01:37:18;-11.90;99.90
45579;DHT22;31293;51.390;12.254;2024-01-11T01:39:19;-11.90;99.90
45579;DHT22;31293;51.390;12.254;2024-01-11T01:41:21;-12.00;99.90
45579;DHT22;31293;51.390;12.254;2024-01-11T01:43:23;-12.00;99.90
45579;DHT22;31293;51.390;12.254;2024-01-11T01:45:25;-12.00;99.90
45579;DHT22;31293;51.390;12.254;2024-01-11T01:47:27;-11.90;99.90
45579;DHT22;31293;51.390;12.254;2024-01-11T01:49:30;-12.00;99.90
45579;DHT22;31293;51.390;12.254;2024-01-11T01:51:32;-12.00;99.90
45579;DHT22;31293;51.390;12.254;2024-01-11T01:53:35;-12.00;99.90
45579;DHT22;31293;51.390;12.254;2024-01-11T01:55:37;-12.00;99.90
45579;DHT22;31293;51.390;12.254;2024-01-11T01:57:40;-12.00;99.90
45579;DHT22;31293;51.390;12.254;2024-01-11T01:59:43;-12.00;99.90
45579;DHT22;31293;51.390;12.254;2024-01-11T02:01:45;-11.80;99.90
45579;DHT22;31293;51.390;12.254;2024-01-11T02:03:49;-11.70;99.90
45579;DHT22;31293;51.390;12.254;2024-01-11T02:05:51;-11.80;99.90
45579;DHT22;31293;51.390;12.254;2024-01-11T02:07:56;-11.90;99.90
45579;DHT22;31293;51.390;12.254;2024-01-11T02:09:59;-11.90;99.90
45579;DHT22;31293;51.390;12.254;2024-01-11T02:12:02;-12.00;99.90
45579;DHT22;31293;51.390;12.254;2024-01-11T02:14:04;-12.00;99.90
45579;DHT22;31293;51.390;12.254;2024-01-11T02:16:06;-12.10;99.90
45579;DHT22;31293;51.390;12.254;2024-01-11T02:18:08;-12.00;99.90
45579;DHT22;31293;51.390;12.254;2024-01-11T02:20:12;-11.90;99.90
45579;DHT22;31293;51.390;12.254;2024-01-11T02:22:32;-11.90;99.90
45579;DHT22;31293;51.390;12.254;2024-01-11T02:24:36;-12.00;99.90
45579;DHT22;31293;51.390;12.254;2024-01-11T02:26:57;-11.80;99.90
45579;DHT22;31293;51.390;12.254;2024-01-11T02:29:01;-11.70;99.90
45579;DHT22;31293;51.390;12.254;2024-01-11T02:31:03;-11.90;99.90
45579;DHT22;31293;51.390;12.254;2024-01-11T02:33:06;-12.00;99.90
45579;DHT22;31293;51.390;12.254;2024-01-11T02:35:08;-12.00;99.90
45579;DHT22;31293;51.390;12.254;2024-01-11T02:37:11;-12.00;99.90
45579;DHT22;31293;51.390;12.254;2024-01-11T02:39:13;-12.10;99.90
45579;DHT22;31293;51.390;12.254;2024-01-11T02:41:18;-12.00;99.90
45579;DHT22;31293;51.390;12.254;2024-01-11T02:43:21;-12.10;99.90
45579;DHT22;31293;51.390;12.254;2024-01-11T02:45:22;-12.10;99.90
45579;DHT22;31293;51.390;12.254;2024-01-11T02:47:24;-12.00;99.90
45579;DHT22;31293;51.390;12.254;2024-01-11T02:49:26;-11.80;99.90
45579;DHT22;31293;51.390;12.254;2024-01-11T02:51:28;-11.80;99.90
45579;DHT22;31293;51.390;12.254;2024-01-11T02:53:30;-11.80;99.90
45579;DHT22;31293;51.390;12.254;2024-01-11T02:55:36;-11.90;99.90
45579;DHT22;31293;51.390;12.254;2024-01-11T02:57:38;-12.00;99.90
45579;DHT22;31293;51.390;12.254;2024-01-11T02:59:40;-12.00;99.90
45579;DHT22;31293;51.390;12.254;2024-01-11T03:01:42;-12.00;99.90
45579;DHT22;31293;51.390;12.254;2024-01-11T03:03:44;-12.00;99.90
45579;DHT22;31293;51.390;12.254;2024-01-11T03:05:47;-11.90;99.90
45579;DHT22;31293;51.390;12.254;2024-01-11T03:07:50;-11.80;99.90
45579;DHT22;31293;51.390;12.254;2024-01-11T03:09:51;-11.80;99.90
45579;DHT22;31293;51.390;12.254;2024-01-11T03:11:53;-11.90;99.90
45579;DHT22;31293;51.390;12.254;2024-01-11T03:13:55;-12.00;99.90
45579;DHT22;31293;51.390;12.254;2024-01-11T03:15:57;-12.00;99.90
45579;DHT22;31293;51.390;12.254;2024-01-11T03:17:59;-12.10;99.90
45579;DHT22;31293;51.390;12.254;2024-01-11T03:20:01;-12.00;99.90
45579;DHT22;31293;51.390;12.254;2024-01-11T03:22:06;-12.00;99.90
45579;DHT22;31293;51.390;12.254;2024-01-11T03:24:08;-12.00;99.90
45579;DHT22;31293;51.390;12.254;2024-01-11T03:26:15;-12.00;99.90
45579;DHT22;31293;51.390;12.254;2024-01-11T03:28:17;-11.80;99.90
45579;DHT22;31293;51.390;12.254;2024-01-11T03:30:19;-11.70;99.90
45579;DHT22;31293;51.390;12.254;2024-01-11T03:32:21;-11.60;99.90
45579;DHT22;31293;51.390;12.254;2024-01-11T03:34:23;-11.70;99.90
45579;DHT22;31293;51.390;12.254;2024-01-11T03:36:25;-11.70;99.90
45579;DHT22;31293;51.390;12.254;2024-01-11T03:38:27;-11.80;99.90
45579;DHT22;31293;51.390;12.254;2024-01-11T03:40:29;-11.70;99.90
45579;DHT22;31293;51.390;12.254;2024-01-11T03:42:31;-11.80;99.90
45579;DHT22;31293;51.390;12.254;2024-01-11T03:44:33;-11.80;99.90
45579;DHT22;31293;51.390;12.254;2024-01-11T03:46:34;-11.70;99.90
45579;DHT22;31293;51.390;12.254;2024-01-11T03:48:36;-11.60;99.90
45579;DHT22;31293;51.390;12.254;2024-01-11T03:50:38;-11.80;99.90
45579;DHT22;31293;51.390;12.254;2024-01-11T03:52:42;-11.70;99.90
45579;DHT22;31293;51.390;12.254;2024-01-11T03:54:44;-11.70;99.90
45579;DHT22;31293;51.390;12.254;2024-01-11T03:56:46;-11.60;99.90
45579;DHT22;31293;51.390;12.254;2024-01-11T03:58:48;-11.50;99.90
45579;DHT22;31293;51.390;12.254;2024-01-11T04:00:50;-11.40;99.90
45579;DHT22;31293;51.390;12.254;2024-01-11T04:02:52;-11.50;99.90
45579;DHT22;31293;51.390;12.254;2024-01-11T04:04:54;-11.60;99.90
45579;DHT22;31293;51.390;12.254;2024-01-11T04:06:56;-11.50;99.90
45579;DHT22;31293;51.390;12.254;2024-01-11T04:08:58;-11.40;99.90
45579;DHT22;31293;51.390;12.254;2024-01-11T04:11:02;-11.40;99.90
45579;DHT22;31293;51.390;12.254;2024-01-11T04:13:09;-11.40;99.90
45579;DHT22;31293;51.390;12.254;2024-01-11T04:15:14;-11.50;99.90
45579;DHT22;31293;51.390;12.254;2024-01-11T04:17:16;-11.40;99.90
45579;DHT22;31293;51.390;12.254;2024-01-11T04:19:18;-11.40;99.90
45579;DHT22;31293;51.390;12.254;2024-01-11T04:21:25;-11.50;99.90
45579;DHT22;31293;51.390;12.254;2024-01-11T04:23:30;-11.60;99.90
45579;DHT22;31293;51.390;12.254;2024-01-11T04:25:32;-11.70;99.90
45579;DHT22;31293;51.390;12.254;2024-01-11T04:27:34;-11.70;99.90
45579;DHT22;31293;51.390;12.254;2024-01-11T04:29:35;-11.60;99.90
45579;DHT22;31293;51.390;12.254;2024-01-11T04:31:37;-11.70;99.90
45579;DHT22;31293;51.390;12.254;2024-01-11T04:33:44;-11.70;99.90
45579;DHT22;31293;51.390;12.254;2024-01-11T04:35:47;-11.80;99.90
45579;DHT22;31293;51.390;12.254;2024-01-11T04:37:49;-11.80;99.90
45579;DHT22;31293;51.390;12.254;2024-01-11T04:39:50;-11.90;99.90
45579;DHT22;31293;51.390;12.254;2024-01-11T04:41:52;-11.90;99.90
45579;DHT22;31293;51.390;12.254;2024-01-11T04:43:54;-11.90;99.90
45579;DHT22;31293;51.390;12.254;2024-01-11T04:45:56;-11.90;99.90
45579;DHT22;31293;51.390;12.254;2024-01-11T04:47:58;-11.90;99.90
45579;DHT22;31293;51.390;12.254;2024-01-11T04:50:00;-12.00;99.90
45579;DHT22;31293;51.390;12.254;2024-01-11T04:52:02;-11.90;99.90
45579;DHT22;31293;51.390;12.254;2024-01-11T04:54:04;-11.90;99.90
45579;DHT22;31293;51.390;12.254;2024-01-11T04:56:07;-11.80;99.90
45579;DHT22;31293;51.390;12.254;2024-01-11T04:58:09;-11.80;99.90
45579;DHT22;31293;51.390;12.254;2024-01-11T05:00:11;-11.80;99.90
45579;DHT22;31293;51.390;12.254;2024-01-11T05:02:13;-11.70;99.90
45579;DHT22;31293;51.390;12.254;2024-01-11T05:04:15;-11.60;99.90
45579;DHT22;31293;51.390;12.254;2024-01-11T05:06:18;-11.60;99.90
45579;DHT22;31293;51.390;12.254;2024-01-11T05:08:21;-11.70;99.90
45579;DHT22;31293;51.390;12.254;2024-01-11T05:10:23;-11.70;99.90
45579;DHT22;31293;51.390;12.254;2024-01-11T05:12:25;-11.70;99.90
45579;DHT22;31293;51.390;12.254;2024-01-11T05:14:27;-11.70;99.90
45579;DHT22;31293;51.390;12.254;2024-01-11T05:16:29;-11.70;99.90
45579;DHT22;31293;51.390;12.254;2024-01-11T05:18:31;-11.70;99.90
45579;DHT22;31293;51.390;12.254;2024-01-11T05:20:36;-11.80;99.90
45579;DHT22;31293;51.390;12.254;2024-01-11T05:22:38;-11.70;99.90
45579;DHT22;31293;51.390;12.254;2024-01-11T05:24:40;-11.70;99.90
45579;DHT22;31293;51.390;12.254;2024-01-11T05:26:41;-11.70;99.90
45579;DHT22;31293;51.390;12.254;2024-01-11T05:28:43;-11.80;99.90
45579;DHT22;31293;51.390;12.254;2024-01-11T05:30:45;-11.70;99.90
45579;DHT22;31293;51.390;12.254;2024-01-11T05:32:47;-11.80;99.90
45579;DHT22;31293;51.390;12.254;2024-01-11T05:34:49;-11.90;99.90
45579;DHT22;31293;51.390;12.254;2024-01-11T05:36:51;-12.00;99.90
45579;DHT22;31293;51.390;12.254;2024-01-11T05:38:53;-11.90;99.90
45579;DHT22;31293;51.390;12.254;2024-01-11T05:40:55;-12.00;99.90
45579;DHT22;31293;51.390;12.254;2024-01-11T05:42:57;-12.00;99.90
45579;DHT22;31293;51.390;12.254;2024-01-11T05:44:59;-11.90;99.90
45579;DHT22;31293;51.390;12.254;2024-01-11T05:47:01;-11.80;99.90
45579;DHT22;31293;51.390;12.254;2024-01-11T05:49:03;-11.90;99.90
45579;DHT22;31293;51.390;12.254;2024-01-11T05:51:05;-11.90;99.90
45579;DHT22;31293;51.390;12.254;2024-01-11T05:53:07;-11.90;99.90
